Latest Weather Observations for McCluer Island

IDD60801

Issued at 12:35 pm CST Saturday 23 August 2014 (issued every 30 minutes, with the page automatically refreshed every 10 minutes)

About weather observations | Map of weather stations | Latest weather observations for NT | Other Formats
Station Details ID: 014274 Name: MCCLUER ISLAND Lat: -11.05 Lon: 132.98 Height: 1.4 m
Data from the previous 72 hours. | See also: Recent months at McCluer Island
Date/Time
CST
Temp
°C
App
Temp
°C
Dew
Point
Rel
Hum
%
Delta-T
°C
Wind Press
QNH
hPa
Press
MSL
hPa
Rain
since 9 am
mm
Dir
 
Spd
km/h
Gust
km/h
Spd
kts
Gust
kts
23/12:30pm 26.9 23.0 13.3 43 8.0 ESE 26 32 14 17 1014.4 - 0.0
23/12:00pm 27.6 22.8 10.3 34 9.7 ESE 26 35 14 19 1014.8 1014.8 0.0
23/11:30am 27.4 23.4 13.0 41 8.4 SE 26 32 14 17 1015.2 - 0.0
23/11:00am 26.9 23.6 12.9 42 8.2 ESE 22 33 12 18 1015.4 - 0.0
23/10:30am 26.8 23.5 13.9 45 7.7 ESE 24 32 13 17 1015.5 - 0.0
23/10:00am 24.6 21.9 14.7 54 5.9 ESE 22 28 12 15 1015.8 - 0.0
23/09:30am 24.9 21.9 13.8 50 6.5 ESE 22 28 12 15 1015.8 - 0.0
23/09:00am 24.6 21.8 14.4 53 6.0 ESE 22 26 12 14 1015.8 1015.8 0.0
23/08:30am 24.0 22.1 14.1 54 5.8 ESE 17 24 9 13 1015.6 - 0.0
23/08:00am 23.3 20.8 13.5 54 5.7 ESE 19 24 10 13 1015.5 - 0.0
23/07:30am 21.9 19.9 13.8 60 4.7 SE 17 20 9 11 1015.1 - 0.0
23/07:00am 20.9 18.8 13.6 63 4.2 SE 17 24 9 13 1014.8 - 0.0
23/06:30am 20.8 18.6 13.3 62 4.3 SE 17 24 9 13 1014.2 - 0.0
23/06:00am 20.8 18.8 14.0 65 3.9 SE 17 24 9 13 1013.9 1013.9 0.0
23/05:30am 20.9 19.5 14.5 67 3.7 SE 15 19 8 10 1013.7 - 0.0
23/05:00am 21.3 20.0 14.7 66 3.9 SE 15 20 8 11 1013.8 - 0.0
23/04:30am 22.1 19.3 13.2 57 5.1 SE 20 28 11 15 1013.7 - 0.0
23/04:00am 22.4 19.0 12.4 53 5.7 SE 22 32 12 17 1013.8 - 0.0
23/03:30am 22.9 18.8 11.6 49 6.3 SE 24 30 13 16 1013.8 - 0.0
23/03:00am 22.6 17.7 11.4 49 6.2 ESE 28 33 15 18 1014.0 1014.0 0.0
23/02:30am 23.0 17.6 14.0 57 5.3 ESE 35 43 19 23 1014.1 - 0.0
23/02:00am 22.7 18.2 16.5 68 3.8 ESE 35 46 19 25 1014.0 - 0.0
23/01:30am 23.7 21.3 19.2 76 2.9 ESE 30 35 16 19 1014.0 - 0.0
23/01:00am 23.6 22.0 19.1 76 2.9 ESE 26 32 14 17 1014.1 - 0.0
23/12:30am 23.7 23.1 19.8 79 2.5 E 22 26 12 14 1014.4 - 0.0
23/12:00am 23.3 23.6 19.7 80 2.3 ESE 17 22 9 12 1014.5 1014.5 0.0
 
Date/Time
CST
Temp
°C
App
Temp
°C
Dew
Point
Rel
Hum
%
Delta-T
°C
Wind Press
QNH
hPa
Press
MSL
hPa
Rain
since 9 am
mm
Dir
 
Spd
km/h
Gust
km/h
Spd
kts
Gust
kts
22/11:30pm 23.2 23.6 18.9 77 2.7 E 15 17 8 9 1014.5 - 0.0
22/11:00pm 21.7 21.5 16.6 73 3.1 ESE 13 15 7 8 1014.3 - 0.0
22/10:30pm 22.1 21.9 16.6 71 3.3 ESE 13 15 7 8 1014.2 - 0.0
22/10:00pm 24.1 23.3 18.1 69 3.8 E 19 20 10 11 1014.1 - 0.0
22/09:30pm 24.2 23.3 17.7 67 4.1 E 19 20 10 11 1013.9 - 0.0
22/09:00pm 24.2 22.9 17.2 65 4.3 ENE 20 24 11 13 1013.7 1013.7 0.0
22/08:30pm 24.3 22.6 17.3 65 4.3 ENE 22 24 12 13 1013.5 - 0.0
22/08:00pm 24.5 22.5 17.5 65 4.4 ENE 24 28 13 15 1013.1 - 0.0
22/07:30pm 24.7 22.2 17.2 63 4.7 ENE 26 30 14 16 1012.7 - 0.0
22/07:00pm 24.7 21.9 16.4 60 5.1 ENE 26 30 14 16 1012.3 - 0.0
22/06:30pm 24.9 22.1 17.4 63 4.7 ENE 28 33 15 18 1012.0 - 0.0
22/06:00pm 25.1 21.9 17.3 62 4.9 ENE 30 33 16 18 1011.8 1011.8 0.0
22/05:30pm 25.1 22.0 17.6 63 4.7 E 30 33 16 18 1011.6 - 0.0
22/05:00pm 25.0 20.6 15.6 56 5.7 E 33 37 18 20 1011.6 - 0.0
22/04:30pm 25.2 20.7 15.5 55 5.9 E 33 39 18 21 1011.7 - 0.0
22/04:00pm 25.4 20.9 15.4 54 6.0 E 33 39 18 21 1011.7 - 0.0
22/03:30pm 25.7 20.0 14.2 49 6.8 E 37 41 20 22 1011.8 - 0.0
22/03:00pm 25.3 19.6 12.9 46 7.2 E 35 41 19 22 1012.2 1012.2 0.0
22/02:30pm 25.6 20.4 14.4 50 6.7 E 35 41 19 22 1012.6 - 0.0
22/02:00pm 25.7 19.2 11.8 42 7.9 ESE 37 41 20 22 1013.0 - 0.0
22/01:30pm 26.5 20.6 12.5 41 8.1 ESE 35 44 19 24 1013.6 - 0.0
22/01:00pm 25.3 20.1 14.4 50 6.5 ESE 35 43 19 23 1013.9 - 0.0
22/12:30pm 26.0 19.6 12.1 42 8.0 ESE 37 44 20 24 1014.4 - 0.0
22/12:00pm 25.9 20.3 13.4 46 7.3 ESE 35 43 19 23 1014.9 1014.9 0.0
22/11:30am 26.5 19.8 9.8 35 9.2 ESE 35 43 19 23 1015.3 - 0.0
22/11:00am 25.0 19.7 14.2 51 6.4 ESE 35 43 19 23 1015.7 - 0.0
22/10:30am 25.1 20.1 13.9 49 6.6 ESE 33 41 18 22 1015.9 - 0.0
22/10:00am 25.3 20.4 14.4 50 6.5 ESE 33 41 18 22 1016.2 - 0.0
22/09:30am 24.2 19.5 14.9 56 5.5 ESE 33 39 18 21 1016.2 - 0.0
22/09:00am 25.0 21.0 15.3 55 5.8 ESE 30 35 16 19 1016.1 1016.1 0.0
22/08:30am 24.1 20.0 14.8 56 5.5 ESE 30 37 16 20 1015.9 - 0.0
22/08:00am 23.6 19.9 15.9 62 4.7 ESE 30 35 16 19 1015.7 - 0.0
22/07:30am 22.9 20.8 16.2 66 4.1 SE 22 32 12 17 1015.5 - 0.0
22/07:00am 22.2 20.0 16.0 68 3.7 SE 22 30 12 16 1015.2 - 0.0
22/06:30am 22.0 19.9 16.3 70 3.4 ESE 22 30 12 16 1015.0 - 0.0
22/06:00am 22.0 19.9 16.1 69 3.6 SE 22 28 12 15 1014.9 1014.9 0.0
22/05:30am 22.1 20.6 16.8 72 3.2 SE 20 30 11 16 1014.4 - 0.0
22/05:00am 22.9 20.0 15.0 61 4.7 SE 24 32 13 17 1014.1 - 0.0
22/04:30am 23.0 19.5 14.6 59 5.0 SE 26 32 14 17 1013.8 - 0.0
22/04:00am 23.2 20.0 15.3 61 4.7 ESE 26 35 14 19 1013.9 - 0.0
22/03:30am 22.8 19.4 16.8 69 3.7 ESE 30 35 16 19 1013.9 - 0.0
22/03:00am 23.5 19.8 17.5 69 3.7 ESE 33 39 18 21 1014.0 1014.0 0.0
22/02:30am 23.8 19.2 17.1 66 4.1 ESE 37 43 20 23 1014.5 - 0.0
22/02:00am 24.1 20.3 18.1 69 3.8 ESE 35 44 19 24 1014.5 - 0.0
22/01:30am 24.1 21.1 19.0 73 3.2 E 33 39 18 21 1014.6 - 0.0
22/01:00am 24.3 22.0 19.4 74 3.1 E 30 33 16 18 1014.7 - 0.0
22/12:30am 24.5 22.3 19.6 74 3.2 E 30 33 16 18 1014.8 - 0.0
22/12:00am 24.4 22.3 19.0 72 3.4 E 28 32 15 17 1014.8 1014.8 0.0
 
Date/Time
CST
Temp
°C
App
Temp
°C
Dew
Point
Rel
Hum
%
Delta-T
°C
Wind Press
QNH
hPa
Press
MSL
hPa
Rain
since 9 am
mm
Dir
 
Spd
km/h
Gust
km/h
Spd
kts
Gust
kts
21/11:30pm 24.0 23.6 19.3 75 3.0 E 20 26 11 14 1015.0 - 0.0
21/11:00pm 24.2 23.4 19.3 74 3.1 E 22 24 12 13 1015.1 - 0.0
21/10:30pm 24.1 23.6 19.2 74 3.1 E 20 24 11 13 1015.0 - 0.0
21/10:00pm 24.4 23.7 19.5 74 3.1 E 22 26 12 14 1014.7 - 0.0
21/09:30pm 24.6 24.0 19.7 74 3.2 E 22 26 12 14 1014.5 - 0.0
21/09:00pm 24.5 24.1 19.3 73 3.3 E 20 24 11 13 1014.2 1014.2 0.0
21/08:30pm 24.6 23.7 19.0 71 3.6 E 22 26 12 14 1014.0 - 0.0
21/08:00pm 24.7 23.2 18.6 69 3.9 E 24 28 13 15 1013.6 - 0.0
21/07:30pm 24.9 21.8 18.3 66 4.2 ENE 32 35 17 19 1013.2 - 0.0
21/07:00pm 24.7 21.3 17.7 65 4.4 ENE 32 35 17 19 1012.7 - 0.0
21/06:30pm 24.9 21.8 18.3 66 4.2 ENE 32 35 17 19 1012.3 - 0.0
21/06:00pm 24.8 21.0 17.3 63 4.7 ENE 33 39 18 21 1012.1 1012.1 0.0
21/05:30pm 25.1 21.6 17.8 64 4.6 ENE 33 39 18 21 1011.9 - 0.0
21/05:00pm 25.1 20.5 16.0 57 5.5 E 35 39 19 21 1011.8 - 0.0
21/04:30pm 25.1 20.2 16.3 58 5.4 E 37 43 20 23 1011.7 - 0.0
21/04:00pm 25.2 20.6 16.1 57 5.6 E 35 41 19 22 1012.0 - 0.0
21/03:30pm 25.1 19.9 14.6 52 6.3 E 35 41 19 22 1012.3 - 0.0
21/03:00pm 25.4 19.9 13.6 48 6.9 ESE 35 41 19 22 1012.7 1012.7 0.0
21/02:30pm 25.6 21.2 15.6 54 6.1 ESE 33 39 18 21 1013.2 - 0.0
21/02:00pm 26.1 21.0 14.9 50 6.7 ESE 35 41 19 22 1013.3 - 0.0
21/01:30pm 25.1 20.3 14.6 52 6.3 ESE 33 39 18 21 1013.7 - 0.0
21/01:00pm 25.0 20.4 15.0 53 6.0 ESE 33 41 18 22 1014.1 - 0.0
21/12:30pm 25.0 19.8 15.6 56 5.7 ESE 37 43 20 23 1014.6 - 0.0
21/12:00pm 25.0 19.9 15.9 57 5.5 ESE 37 44 20 24 1014.9 1014.9 0.0
21/11:30am 24.9 19.9 16.1 58 5.4 ESE 37 44 20 24 1015.1 - 0.0
21/11:00am 24.6 20.6 16.8 62 4.8 ESE 33 41 18 22 1015.3 - 0.0
21/10:30am 24.8 21.5 18.0 66 4.3 ESE 32 37 17 20 1015.6 - 0.0
21/10:00am 24.4 21.2 18.6 70 3.7 ESE 33 41 18 22 1015.5 - 0.0
21/09:30am 24.7 21.5 18.2 67 4.1 ESE 32 37 17 20 1015.5 - 0.0
21/09:00am 24.6 23.3 19.0 71 3.6 ESE 24 32 13 17 1015.3 1015.3 0.0
21/08:30am 24.1 22.5 18.3 70 3.7 SE 24 32 13 17 1015.1 - 0.0
21/08:00am 23.5 22.4 18.6 74 3.1 SE 22 28 12 15 1014.8 - 0.0
21/07:30am 22.7 22.3 19.3 81 2.2 ESE 20 26 11 14 1014.3 - 0.0
21/07:00am 22.1 20.9 18.3 79 2.4 ESE 22 26 12 14 1013.8 - 0.0
21/06:30am 22.2 20.7 17.8 76 2.7 ESE 22 28 12 15 1013.3 - 0.0
21/06:00am 21.7 20.9 18.5 82 2.0 SE 20 26 11 14 1013.0 1013.0 0.0
21/05:30am 22.1 21.6 20.7 92 0.9 ESE 24 33 13 18 1012.8 - 0.0
21/05:00am 22.3 23.1 21.3 94 0.7 SE 19 24 10 13 1012.7 - 0.0
21/04:30am 22.6 23.2 21.1 91 1.0 SE 19 24 10 13 1012.7 - 0.0
21/04:00am 23.1 22.1 20.4 85 1.7 ESE 26 30 14 16 1012.5 - 0.0
21/03:30am 22.8 22.0 20.1 85 1.7 ESE 24 30 13 16 1012.5 - 0.0
21/03:00am 21.9 22.0 20.0 89 1.2 SE 19 24 10 13 1012.7 1012.7 0.0
21/02:30am 21.4 22.1 19.7 90 1.1 SE 15 17 8 9 1012.9 - 0.0
21/02:00am 21.3 21.7 19.0 87 1.4 SE 15 17 8 9 1013.2 - 0.0
21/01:30am 21.5 21.9 19.1 86 1.5 SE 15 17 8 9 1013.4 - 0.0
21/01:00am 21.6 21.9 18.8 84 1.8 SE 15 17 8 9 1013.6 - 0.0
21/12:30am 21.6 21.8 18.6 83 1.9 SE 15 17 8 9 1013.8 - 0.0
21/12:00am 21.7 22.1 18.1 80 2.2 SE 13 15 7 8 1013.9 1013.9 0.0
 
Date/Time
CST
Temp
°C
App
Temp
°C
Dew
Point
Rel
Hum
%
Delta-T
°C
Wind Press
QNH
hPa
Press
MSL
hPa
Rain
since 9 am
mm
Dir
 
Spd
km/h
Gust
km/h
Spd
kts
Gust
kts
20/11:30pm 21.6 21.7 17.4 77 2.6 SE 13 13 7 7 1014.0 - 0.0
20/11:00pm 21.9 22.5 17.7 77 2.6 SE 11 13 6 7 1014.0 - 0.0
20/10:30pm 21.9 22.8 17.5 76 2.7 SE 9 9 5 5 1014.0 - 0.0
20/10:00pm 21.7 22.5 17.3 76 2.7 ESE 9 11 5 6 1014.2 - 0.0
20/09:30pm 22.3 23.1 17.4 74 3.0 ESE 9 11 5 6 1014.1 - 0.0
20/09:00pm 24.1 24.7 18.7 72 3.4 E 13 15 7 8 1014.0 1014.0 0.0
20/08:30pm 24.2 24.7 18.4 70 3.7 ENE 13 17 7 9 1014.0 - 0.0
20/08:00pm 24.3 23.7 18.5 70 3.7 ENE 19 20 10 11 1013.6 - 0.0
20/07:30pm 24.5 23.2 18.2 68 4.0 ENE 22 26 12 14 1013.3 - 0.0
20/07:00pm 24.3 22.6 18.0 68 4.0 ENE 24 28 13 15 1013.0 - 0.0
20/06:30pm 24.4 22.6 17.9 67 4.1 ENE 24 28 13 15 1012.7 - 0.0
20/06:00pm 24.4 22.5 17.6 66 4.2 ENE 24 28 13 15 1012.6 1012.6 0.0
20/05:30pm 24.7 23.0 18.2 67 4.1 ENE 24 28 13 15 1012.5 - 0.0
20/05:00pm 24.8 24.0 19.2 71 3.6 ENE 22 26 12 14 1012.5 - 0.0
20/04:30pm 24.7 23.5 18.4 68 4.0 ENE 22 26 12 14 1012.6 - 0.0
20/04:00pm 25.2 24.0 18.4 66 4.3 E 22 26 12 14 1012.7 - 0.0
20/03:30pm 25.3 23.8 17.7 62 4.8 E 22 24 12 13 1012.9 - 0.0
20/03:00pm 25.4 24.2 18.3 65 4.5 ESE 22 26 12 14 1013.0 1013.0 0.0
20/02:30pm 25.4 24.5 19.1 68 4.0 ESE 22 28 12 15 1013.3 - 0.0
20/02:00pm 25.1 24.3 19.2 70 3.8 ESE 22 26 12 14 1013.9 - 0.0
20/01:30pm 25.2 24.2 18.9 68 4.0 ESE 22 26 12 14 1014.4 - 0.0
20/01:00pm 25.1 24.8 19.5 71 3.6 ESE 20 24 11 13 1014.9 - 0.0

Other Formats:

Comma delimited format used in spreadsheet applications
http://www.bom.gov.au/fwo/IDD60801/IDD60801.94135.axf

JavaScript Object Notation format (JSON) in row-major order
http://www.bom.gov.au/fwo/IDD60801/IDD60801.94135.json